Belle Isle Sound — CSL5116 — position and weather

sailwx.info

Track history (hours):
 
Tides and Currents Weather Stations Pressure Air Temp Water Temp Dewpoint Dewpoint Depression Visibility Wind Speed Wind Dir Waves Ship Positions

Belle Isle Sound

Last reported at 2018-Jul-20 00:07 UTC. Time now 2018-Jul-20 00:42 UTC.
Position N 51°18' W 127°53'.

; draft 2.5 m.

Type: Tug. MMSI: 316020742.

Date/timePositionNaut miles runAvg speedWind from/ knotsBaromVisibWave heightAir tempDewpointWater temp
2018-Jul-20 00:07N 51°18' W 127°53'2 7.7
2018-Jul-19 23:55N 51°20' W 127°53'3 6.8
2018-Jul-19 23:24N 51°23' W 127°50'3 6.6
2018-Jul-19 22:59N 51°25' W 127°47'4 7.7
2018-Jul-19 22:30N 51°26' W 127°41'4 7.3
2018-Jul-19 22:00N 51°28' W 127°36'4 7.8
2018-Jul-19 21:30N 51°31' W 127°32'3 5.0
2018-Jul-19 20:59N 51°34' W 127°31'0 0.2
2018-Jul-19 20:18N 51°34' W 127°31'2 6.7
2018-Jul-19 20:00N 51°34' W 127°34'6 7.5
2018-Jul-19 19:16N 51°31' W 127°40'2 7.7
2018-Jul-19 19:01N 51°31' W 127°44'4 7.2
2018-Jul-19 18:31N 51°32' W 127°49'4 9.0
2018-Jul-19 18:01N 51°36' W 127°53'4 8.5
2018-Jul-19 17:30N 51°39' W 127°57'4 7.9
2018-Jul-19 17:01N 51°39' W 128°04'2 4.9
2018-Jul-19 16:30N 51°39' W 128°08'0 0.0
2018-Jul-19 16:00N 51°39' W 128°08'0 0.0
2018-Jul-19 15:31N 51°39' W 128°08'0 0.0
2018-Jul-19 15:00N 51°39' W 128°08'0 0.0
2018-Jul-19 14:30N 51°39' W 128°08'0 0.0
2018-Jul-19 13:30N 51°39' W 128°08'0 0.0
2018-Jul-19 13:00N 51°39' W 128°08'0 0.1
2018-Jul-19 12:30N 51°39' W 128°08'1 1.2
2018-Jul-19 12:00N 51°39' W 128°07'4 7.9
2018-Jul-19 11:30N 51°39' W 128°00'3 6.0
2018-Jul-19 11:00N 51°41' W 127°57'4 8.1
2018-Jul-19 10:30N 51°45' W 127°58'4 8.0
2018-Jul-19 10:00N 51°49' W 127°58'4 7.8
2018-Jul-19 09:30N 51°53' W 127°57'4 8.3
2018-Jul-19 09:00N 51°57' W 127°56'4 7.9
2018-Jul-19 08:30N 52°01' W 127°55'4 8.0
2018-Jul-19 08:00N 52°05' W 127°54'4 8.0
2018-Jul-19 07:30N 52°09' W 127°52'4 8.0
2018-Jul-19 07:00N 52°13' W 127°50'4 7.8
2018-Jul-19 06:30N 52°16' W 127°47'4 7.9
2018-Jul-19 06:00N 52°20' W 127°45'2 4.2
2018-Jul-19 05:29N 52°21' W 127°42'0 0.0
2018-Jul-19 04:59N 52°21' W 127°42'0 0.0
2018-Jul-19 04:26N 52°21' W 127°42'0 0.2
2018-Jul-19 02:42N 52°21' W 127°42'1 7.0
2018-Jul-19 02:30N 52°21' W 127°44'4 8.2
2018-Jul-19 01:59N 52°16' W 127°46'4 8.1
2018-Jul-19 01:30N 52°13' W 127°49'4 8.3
2018-Jul-19 00:59N 52°09' W 127°52'4 8.2
2018-Jul-19 00:30N 52°05' W 127°54'4 8.3
2018-Jul-19 00:00N 52°01' W 127°55'4 8.2
2018-Jul-18 23:30N 51°57' W 127°56'4 8.3
2018-Jul-18 23:00N 51°53' W 127°55'4 7.2
2018-Jul-18 22:30N 51°49' W 127°55'3 5.8
2018-Jul-18 22:00N 51°47' W 127°55'4 7.2
2018-Jul-18 21:31N 51°43' W 127°54'4 7.3
2018-Jul-18 21:00N 51°39' W 127°53'4 7.4
2018-Jul-18 20:30N 51°36' W 127°53'4 7.6
2018-Jul-18 20:00N 51°32' W 127°52'4 7.8
2018-Jul-18 19:30N 51°28' W 127°52'4 7.7
2018-Jul-18 19:00N 51°24' W 127°52'4 7.1
2018-Jul-18 18:28N 51°20' W 127°52'4 7.2
2018-Jul-18 17:55N 51°16' W 127°52'3 7.2
2018-Jul-18 17:29N 51°13' W 127°51'4 7.4
2018-Jul-18 16:56N 51°09' W 127°50'3 7.5
2018-Jul-18 16:30N 51°07' W 127°47'4 7.4
2018-Jul-18 16:00N 51°05' W 127°42'4 7.5
2018-Jul-18 15:31N 51°02' W 127°38'4 7.7
2018-Jul-18 15:00N 50°59' W 127°34'4 7.4
2018-Jul-18 14:30N 50°56' W 127°30'7 7.3
2018-Jul-18 13:30N 50°51' W 127°22'4 7.3
2018-Jul-18 13:00N 50°48' W 127°20'4 7.5
2018-Jul-18 12:30N 50°44' W 127°17'6 7.4
2018-Jul-18 11:43N 50°39' W 127°13'2 7.2
2018-Jul-18 11:30N 50°38' W 127°11'5 0.3
2018-Jul-17 21:06N 50°36' W 127°05'1 7.5
2018-Jul-17 20:58N 50°36' W 127°04'5 8.0
2018-Jul-17 20:18N 50°37' W 126°55'2 7.7
2018-Jul-17 20:00N 50°37' W 126°52'4 7.8
2018-Jul-17 19:26N 50°36' W 126°45'57 3.8
2018-Jul-17 04:33N 50°27' W 125°17'1 8.1
2018-Jul-17 04:26N 50°26' W 125°16'4 8.6
2018-Jul-17 04:00N 50°24' W 125°11'4 8.6
2018-Jul-17 03:29N 50°27' W 125°06'3 1.8
2018-Jul-17 01:49N 50°30' W 125°06'0 0.0
2018-Jul-16 23:19N 50°30' W 125°06'1 1.5
2018-Jul-16 22:58N 50°30' W 125°06'3 4.4
2018-Jul-16 22:20N 50°27' W 125°05'2 5.8
2018-Jul-16 22:00N 50°25' W 125°05'3 7.0
2018-Jul-16 21:30N 50°21' W 125°06'3 7.0
2018-Jul-16 21:01N 50°19' W 125°10'3 6.2
2018-Jul-16 20:30N 50°19' W 125°15'4 7.3
2018-Jul-16 19:59N 50°18' W 125°20'3 6.0
2018-Jul-16 19:29N 50°15' W 125°23'4 9.2
2018-Jul-16 19:00N 50°11' W 125°22'4 7.1
2018-Jul-16 18:31N 50°07' W 125°23'0 0.0
2018-Jul-16 18:00N 50°07' W 125°23'0 0.0
2018-Jul-16 17:30N 50°07' W 125°23'0 0.1
2018-Jul-16 17:01N 50°07' W 125°23'0 0.0
2018-Jul-16 16:31N 50°07' W 125°23'0 0.0
2018-Jul-16 16:00N 50°07' W 125°23'0 0.0
2018-Jul-16 15:31N 50°07' W 125°23'0 0.0
2018-Jul-16 15:01N 50°07' W 125°23'0 0.0
2018-Jul-16 14:31N 50°07' W 125°23'0 0.1
2018-Jul-16 14:00N 50°07' W 125°23'0 0.2
2018-Jul-16 13:30N 50°07' W 125°23'0 0.0
2018-Jul-16 13:00N 50°07' W 125°23'0 0.0
2018-Jul-16 12:31N 50°07' W 125°23'0 0.0
2018-Jul-16 12:01N 50°07' W 125°23'0 0.0
2018-Jul-16 11:31N 50°07' W 125°23'0 0.0
2018-Jul-16 11:00N 50°07' W 125°23'0 0.0
2018-Jul-16 10:31N 50°07' W 125°23'0 0.0
2018-Jul-16 10:01N 50°07' W 125°23'0 0.0
2018-Jul-16 09:31N 50°07' W 125°23'0 0.0
2018-Jul-16 09:01N 50°07' W 125°23'0 0.0
2018-Jul-16 08:30N 50°07' W 125°23'0 0.0
2018-Jul-16 08:01N 50°07' W 125°23'0 0.0
2018-Jul-16 07:30N 50°07' W 125°23'0 0.0
2018-Jul-16 07:01N 50°07' W 125°23'0 0.0
2018-Jul-16 06:31N 50°07' W 125°23'0 0.0
2018-Jul-16 06:01N 50°07' W 125°23'0 0.0
2018-Jul-16 05:31N 50°07' W 125°23'0 0.0
2018-Jul-16 05:00N 50°07' W 125°23'0 0.0
2018-Jul-16 04:30N 50°07' W 125°23'0 0.0
2018-Jul-16 04:00N 50°07' W 125°23'0 0.0
2018-Jul-16 03:30N 50°07' W 125°23'0 0.0
2018-Jul-16 03:00N 50°07' W 125°23'0 0.0
2018-Jul-16 02:31N 50°07' W 125°23'0 0.0
2018-Jul-16 02:00N 50°07' W 125°23'0 0.0
2018-Jul-16 01:30N 50°07' W 125°23'0 0.0
2018-Jul-16 01:01N 50°07' W 125°23'0 0.0
2018-Jul-16 00:30N 50°07' W 125°23'0 0.0
2018-Jul-16 00:00N 50°07' W 125°23'0 0.0
2018-Jul-15 23:31N 50°07' W 125°23'0 0.0
2018-Jul-15 23:00N 50°07' W 125°23'0 0.0
2018-Jul-15 22:30N 50°07' W 125°23'0 0.0
2018-Jul-15 22:01N 50°07' W 125°23'0 0.0
2018-Jul-15 21:30N 50°07' W 125°23'0 0.0
2018-Jul-15 21:00N 50°07' W 125°23'0 0.0
2018-Jul-15 20:30N 50°07' W 125°23'0 0.0
2018-Jul-15 20:01N 50°07' W 125°23'0 0.0
2018-Jul-15 19:30N 50°07' W 125°23'0 0.0
2018-Jul-15 19:00N 50°07' W 125°23'0 0.0
2018-Jul-15 18:30N 50°07' W 125°23'0 0.0
2018-Jul-15 18:01N 50°07' W 125°23'0 0.0
2018-Jul-15 17:31N 50°07' W 125°23'0 0.0
2018-Jul-15 17:00N 50°07' W 125°23'0 0.0
2018-Jul-15 16:30N 50°07' W 125°23'0 0.0
2018-Jul-15 16:00N 50°07' W 125°23'0 0.0
2018-Jul-15 15:30N 50°07' W 125°23'0 0.0
2018-Jul-15 15:01N 50°07' W 125°23'0 0.0
2018-Jul-15 14:31N 50°07' W 125°23'0 0.0
2018-Jul-15 14:00N 50°07' W 125°23'0 0.0
2018-Jul-15 13:30N 50°07' W 125°23'0 0.0
2018-Jul-15 13:01N 50°07' W 125°23'0 0.0
2018-Jul-15 12:29N 50°07' W 125°23'0 0.0
2018-Jul-15 12:00N 50°07' W 125°23'0 0.0
2018-Jul-15 11:29N 50°07' W 125°23'0 0.0
2018-Jul-15 11:01N 50°07' W 125°23'0 0.0
2018-Jul-15 10:30N 50°07' W 125°23'0 0.0
2018-Jul-15 10:00N 50°07' W 125°23'0 0.0
2018-Jul-15 09:31N 50°07' W 125°23'0 0.0
2018-Jul-15 09:00N 50°07' W 125°23'0 0.0
2018-Jul-15 08:29N 50°07' W 125°23'0 0.0
2018-Jul-15 08:00N 50°07' W 125°23'0 0.0
2018-Jul-15 07:30N 50°07' W 125°23'0 0.0
2018-Jul-15 07:00N 50°07' W 125°23'0 0.0
2018-Jul-15 06:30N 50°07' W 125°23'0 0.0
2018-Jul-15 06:01N 50°07' W 125°23'0 0.0
2018-Jul-15 05:30N 50°07' W 125°23'0 0.0
2018-Jul-15 05:01N 50°07' W 125°23'0 0.0
2018-Jul-15 04:30N 50°07' W 125°23'0 0.0
2018-Jul-15 03:59N 50°07' W 125°23'0 0.0
2018-Jul-15 03:31N 50°07' W 125°23'0 0.0
2018-Jul-15 03:00N 50°07' W 125°23'0 0.0
2018-Jul-15 02:30N 50°07' W 125°23'0 0.0
2018-Jul-15 02:01N 50°07' W 125°23'0 0.0
2018-Jul-15 01:30N 50°07' W 125°23'0 0.0
2018-Jul-15 01:00N 50°07' W 125°23'0 0.0
2018-Jul-15 00:30N 50°07' W 125°23'0 0.0
2018-Jul-15 00:01N 50°07' W 125°23'0 0.0
2018-Jul-14 23:30N 50°07' W 125°23'0 0.0
2018-Jul-14 22:59N 50°07' W 125°23'0 0.0
2018-Jul-14 22:31N 50°07' W 125°23'0 0.0
2018-Jul-14 22:00N 50°07' W 125°23'0 0.0
2018-Jul-14 21:28N 50°07' W 125°23'0 0.0
2018-Jul-14 21:00N 50°07' W 125°23'0 0.0
2018-Jul-14 20:30N 50°07' W 125°23'0 0.0
2018-Jul-14 20:00N 50°07' W 125°23'0 0.0
2018-Jul-14 19:30N 50°07' W 125°23'0 0.0
2018-Jul-14 19:00N 50°07' W 125°23'0 0.0
2018-Jul-14 18:30N 50°07' W 125°23'0 0.0
2018-Jul-14 18:01N 50°07' W 125°23'0 0.0
2018-Jul-14 17:31N 50°07' W 125°23'0 0.0
2018-Jul-14 17:01N 50°07' W 125°23'0 0.0
2018-Jul-14 16:31N 50°07' W 125°23'0 0.0
2018-Jul-14 16:00N 50°07' W 125°23'0 0.0
2018-Jul-14 15:30N 50°07' W 125°23'0 0.0
2018-Jul-14 15:01N 50°07' W 125°23'0 0.0
2018-Jul-14 14:30N 50°07' W 125°23'0 0.0
2018-Jul-14 13:31N 50°07' W 125°23'0 0.0
2018-Jul-14 13:00N 50°07' W 125°23'0 0.0
2018-Jul-14 12:30N 50°07' W 125°23'0 0.0
2018-Jul-14 12:01N 50°07' W 125°23'0 0.0
2018-Jul-14 11:31N 50°07' W 125°23'0 0.0
2018-Jul-14 11:00N 50°07' W 125°23'0 0.0
2018-Jul-14 10:31N 50°07' W 125°23'0 0.0
2018-Jul-14 10:00N 50°07' W 125°23'0 0.0
2018-Jul-14 09:31N 50°07' W 125°23'0 0.0
2018-Jul-14 09:00N 50°07' W 125°23'0 0.0
2018-Jul-14 08:30N 50°07' W 125°23'0 0.0
2018-Jul-14 08:00N 50°07' W 125°23'0 0.0
2018-Jul-14 07:30N 50°07' W 125°23'0 0.0
2018-Jul-14 07:01N 50°07' W 125°23'0 0.0
2018-Jul-14 06:27N 50°07' W 125°23'0 0.0
2018-Jul-14 05:58N 50°07' W 125°23'0 0.0
2018-Jul-14 05:30N 50°07' W 125°23'0 0.0
2018-Jul-14 05:01N 50°07' W 125°23'0 0.0
2018-Jul-14 04:30N 50°07' W 125°23'0 0.0
2018-Jul-14 03:59N 50°07' W 125°23'0 0.0
2018-Jul-14 03:30N 50°07' W 125°23'0 0.0
2018-Jul-14 03:00N 50°07' W 125°23'0 0.0
2018-Jul-14 02:31N 50°07' W 125°23'0 0.0
2018-Jul-14 02:00N 50°07' W 125°23'0 0.0
2018-Jul-14 01:30N 50°07' W 125°23'0 0.0
2018-Jul-14 00:59N 50°07' W 125°23'0 0.0
2018-Jul-14 00:31N 50°07' W 125°23'0 0.0
2018-Jul-14 00:00N 50°07' W 125°23'0 0.0
2018-Jul-13 23:30N 50°07' W 125°23'0 0.0
2018-Jul-13 23:00N 50°07' W 125°23'0 0.0
2018-Jul-13 22:30N 50°07' W 125°23'0 0.0
2018-Jul-13 22:00N 50°07' W 125°23'0 0.0
2018-Jul-13 21:31N 50°07' W 125°23'0 0.0
2018-Jul-13 21:00N 50°07' W 125°23'0 0.0
2018-Jul-13 20:30N 50°07' W 125°23'0 0.0
2018-Jul-13 20:01N 50°07' W 125°23'0 0.0
2018-Jul-13 19:30N 50°07' W 125°23'0 0.0
2018-Jul-13 19:00N 50°07' W 125°23'0 0.0
2018-Jul-13 18:30N 50°07' W 125°23'0 0.0
2018-Jul-13 17:59N 50°07' W 125°23'0 0.0
2018-Jul-11 17:58N 50°07' W 125°23'0 0.0
2018-Jul-11 17:30N 50°07' W 125°23'0 0.0
2018-Jul-11 17:00N 50°07' W 125°23'0 0.0
2018-Jul-11 16:30N 50°07' W 125°23'0 0.0
2018-Jul-11 16:00N 50°07' W 125°23'0 0.0
2018-Jul-11 15:30N 50°07' W 125°23'0 0.0
2018-Jul-11 15:00N 50°07' W 125°23'0 0.0
2018-Jul-11 14:30N 50°07' W 125°23'0 0.0
2018-Jul-11 14:00N 50°07' W 125°23'0 0.0
2018-Jul-11 13:30N 50°07' W 125°23'0 0.0
2018-Jul-11 13:00N 50°07' W 125°23'0 0.0
2018-Jul-11 12:30N 50°07' W 125°23'0 0.0
2018-Jul-11 12:00N 50°07' W 125°23'0 0.0
2018-Jul-11 11:30N 50°07' W 125°23'0 0.0
2018-Jul-11 11:00N 50°07' W 125°23'0 0.0
2018-Jul-11 10:30N 50°07' W 125°23'0 0.0
2018-Jul-11 10:00N 50°07' W 125°23'0 0.0
2018-Jul-11 09:30N 50°07' W 125°23'0 0.0
2018-Jul-11 09:00N 50°07' W 125°23'0 0.0
2018-Jul-11 08:30N 50°07' W 125°23'0 0.0
2018-Jul-11 08:00N 50°07' W 125°23'0 0.0
2018-Jul-11 07:30N 50°07' W 125°23'0 0.0
2018-Jul-11 07:00N 50°07' W 125°23'0 0.0
2018-Jul-11 06:29N 50°07' W 125°23'0 0.0
2018-Jul-11 06:00N 50°07' W 125°23'0 0.0
2018-Jul-11 05:30N 50°07' W 125°23'0 0.0
2018-Jul-11 05:00N 50°07' W 125°23'0 0.0
2018-Jul-11 04:30N 50°07' W 125°23'0 0.0
2018-Jul-11 04:00N 50°07' W 125°23'0 0.0
2018-Jul-11 03:30N 50°07' W 125°23'0 0.0
2018-Jul-11 03:00N 50°07' W 125°23'0 0.0
2018-Jul-11 02:30N 50°07' W 125°23'0 0.0
2018-Jul-11 02:00N 50°07' W 125°23'0 0.0
2018-Jul-11 01:30N 50°07' W 125°23'0 0.0
2018-Jul-11 01:00N 50°07' W 125°23'0 0.0
2018-Jul-11 00:30N 50°07' W 125°23'0 0.0
2018-Jul-11 00:00N 50°07' W 125°23'0 0.0
2018-Jul-10 23:30N 50°07' W 125°23'0 0.0
2018-Jul-10 23:00N 50°07' W 125°23'0 0.0
2018-Jul-10 22:30N 50°07' W 125°23'0 0.0
2018-Jul-10 22:00N 50°07' W 125°23'0 0.0
2018-Jul-10 21:30N 50°07' W 125°23'0 0.0
2018-Jul-10 21:00N 50°07' W 125°23'0 0.0
2018-Jul-10 20:30N 50°07' W 125°23'0 0.1
2018-Jul-10 20:00N 50°07' W 125°23'0 0.3
2018-Jul-10 19:30N 50°07' W 125°23'0 0.0
2018-Jul-10 19:00N 50°07' W 125°23'0 0.0
2018-Jul-10 18:30N 50°07' W 125°23'3 6.8
2018-Jul-10 18:00N 50°11' W 125°22'4 8.0
2018-Jul-10 17:30N 50°15' W 125°23'4 8.6
2018-Jul-10 17:00N 50°19' W 125°25'10 7.4
2018-Jul-10 15:43N 50°27' W 125°17'2 8.6
2018-Jul-10 15:30N 50°26' W 125°15'4 7.0
2018-Jul-10 14:57N 50°25' W 125°08'6 0.7
2018-Jul-10 05:30N 50°30' W 125°03'5 7.7
2018-Jul-10 04:53N 50°26' W 125°06'3 8.4
2018-Jul-10 04:30N 50°24' W 125°10'3 7.0
2018-Jul-10 04:00N 50°26' W 125°15'  
Track history (hours):
 
Tides and Currents Weather Stations Pressure Air Temp Water Temp Dewpoint Dewpoint Depression Visibility Wind Speed Wind Dir Waves Ship Positions

Belle Isle Sound

Last reported at 2018-Jul-20 00:07 UTC. Time now 2018-Jul-20 00:42 UTC.
Position N 51°18' W 127°53'.

; draft 2.5 m.

Type: Tug. MMSI: 316020742.

Date/timePositionNaut miles runAvg speedWind from/ knotsBaromVisibWave heightAir tempDewpointWater temp
2018-Jul-20 00:07N 51°18' W 127°53'2 7.7
2018-Jul-19 23:55N 51°20' W 127°53'3 6.8
2018-Jul-19 23:24N 51°23' W 127°50'3 6.6
2018-Jul-19 22:59N 51°25' W 127°47'4 7.7
2018-Jul-19 22:30N 51°26' W 127°41'4 7.3
2018-Jul-19 22:00N 51°28' W 127°36'4 7.8
2018-Jul-19 21:30N 51°31' W 127°32'3 5.0
2018-Jul-19 20:59N 51°34' W 127°31'0 0.2
2018-Jul-19 20:18N 51°34' W 127°31'2 6.7
2018-Jul-19 20:00N 51°34' W 127°34'6 7.5
2018-Jul-19 19:16N 51°31' W 127°40'2 7.7
2018-Jul-19 19:01N 51°31' W 127°44'4 7.2
2018-Jul-19 18:31N 51°32' W 127°49'4 9.0
2018-Jul-19 18:01N 51°36' W 127°53'4 8.5
2018-Jul-19 17:30N 51°39' W 127°57'4 7.9
2018-Jul-19 17:01N 51°39' W 128°04'2 4.9
2018-Jul-19 16:30N 51°39' W 128°08'0 0.0
2018-Jul-19 16:00N 51°39' W 128°08'0 0.0
2018-Jul-19 15:31N 51°39' W 128°08'0 0.0
2018-Jul-19 15:00N 51°39' W 128°08'0 0.0
2018-Jul-19 14:30N 51°39' W 128°08'0 0.0
2018-Jul-19 13:30N 51°39' W 128°08'0 0.0
2018-Jul-19 13:00N 51°39' W 128°08'0 0.1
2018-Jul-19 12:30N 51°39' W 128°08'1 1.2
2018-Jul-19 12:00N 51°39' W 128°07'4 7.9
2018-Jul-19 11:30N 51°39' W 128°00'3 6.0
2018-Jul-19 11:00N 51°41' W 127°57'4 8.1
2018-Jul-19 10:30N 51°45' W 127°58'4 8.0
2018-Jul-19 10:00N 51°49' W 127°58'4 7.8
2018-Jul-19 09:30N 51°53' W 127°57'4 8.3
2018-Jul-19 09:00N 51°57' W 127°56'4 7.9
2018-Jul-19 08:30N 52°01' W 127°55'4 8.0
2018-Jul-19 08:00N 52°05' W 127°54'4 8.0
2018-Jul-19 07:30N 52°09' W 127°52'4 8.0
2018-Jul-19 07:00N 52°13' W 127°50'4 7.8
2018-Jul-19 06:30N 52°16' W 127°47'4 7.9
2018-Jul-19 06:00N 52°20' W 127°45'2 4.2
2018-Jul-19 05:29N 52°21' W 127°42'0 0.0
2018-Jul-19 04:59N 52°21' W 127°42'0 0.0
2018-Jul-19 04:26N 52°21' W 127°42'0 0.2
2018-Jul-19 02:42N 52°21' W 127°42'1 7.0
2018-Jul-19 02:30N 52°21' W 127°44'4 8.2
2018-Jul-19 01:59N 52°16' W 127°46'4 8.1
2018-Jul-19 01:30N 52°13' W 127°49'4 8.3
2018-Jul-19 00:59N 52°09' W 127°52'4 8.2
2018-Jul-19 00:30N 52°05' W 127°54'4 8.3
2018-Jul-19 00:00N 52°01' W 127°55'4 8.2
2018-Jul-18 23:30N 51°57' W 127°56'4 8.3
2018-Jul-18 23:00N 51°53' W 127°55'4 7.2
2018-Jul-18 22:30N 51°49' W 127°55'3 5.8
2018-Jul-18 22:00N 51°47' W 127°55'4 7.2
2018-Jul-18 21:31N 51°43' W 127°54'4 7.3
2018-Jul-18 21:00N 51°39' W 127°53'4 7.4
2018-Jul-18 20:30N 51°36' W 127°53'4 7.6
2018-Jul-18 20:00N 51°32' W 127°52'4 7.8
2018-Jul-18 19:30N 51°28' W 127°52'4 7.7
2018-Jul-18 19:00N 51°24' W 127°52'4 7.1
2018-Jul-18 18:28N 51°20' W 127°52'4 7.2
2018-Jul-18 17:55N 51°16' W 127°52'3 7.2
2018-Jul-18 17:29N 51°13' W 127°51'4 7.4
2018-Jul-18 16:56N 51°09' W 127°50'3 7.5
2018-Jul-18 16:30N 51°07' W 127°47'4 7.4
2018-Jul-18 16:00N 51°05' W 127°42'4 7.5
2018-Jul-18 15:31N 51°02' W 127°38'4 7.7
2018-Jul-18 15:00N 50°59' W 127°34'4 7.4
2018-Jul-18 14:30N 50°56' W 127°30'7 7.3
2018-Jul-18 13:30N 50°51' W 127°22'4 7.3
2018-Jul-18 13:00N 50°48' W 127°20'4 7.5
2018-Jul-18 12:30N 50°44' W 127°17'6 7.4
2018-Jul-18 11:43N 50°39' W 127°13'2 7.2
2018-Jul-18 11:30N 50°38' W 127°11'5 0.3
2018-Jul-17 21:06N 50°36' W 127°05'1 7.5
2018-Jul-17 20:58N 50°36' W 127°04'5 8.0
2018-Jul-17 20:18N 50°37' W 126°55'2 7.7
2018-Jul-17 20:00N 50°37' W 126°52'4 7.8
2018-Jul-17 19:26N 50°36' W 126°45'57 3.8
2018-Jul-17 04:33N 50°27' W 125°17'1 8.1
2018-Jul-17 04:26N 50°26' W 125°16'4 8.6
2018-Jul-17 04:00N 50°24' W 125°11'4 8.6
2018-Jul-17 03:29N 50°27' W 125°06'3 1.8
2018-Jul-17 01:49N 50°30' W 125°06'0 0.0
2018-Jul-16 23:19N 50°30' W 125°06'1 1.5
2018-Jul-16 22:58N 50°30' W 125°06'3 4.4
2018-Jul-16 22:20N 50°27' W 125°05'2 5.8
2018-Jul-16 22:00N 50°25' W 125°05'3 7.0
2018-Jul-16 21:30N 50°21' W 125°06'3 7.0
2018-Jul-16 21:01N 50°19' W 125°10'3 6.2
2018-Jul-16 20:30N 50°19' W 125°15'4 7.3
2018-Jul-16 19:59N 50°18' W 125°20'3 6.0
2018-Jul-16 19:29N 50°15' W 125°23'4 9.2
2018-Jul-16 19:00N 50°11' W 125°22'4 7.1
2018-Jul-16 18:31N 50°07' W 125°23'0 0.0
2018-Jul-16 18:00N 50°07' W 125°23'0 0.0
2018-Jul-16 17:30N 50°07' W 125°23'0 0.1
2018-Jul-16 17:01N 50°07' W 125°23'0 0.0
2018-Jul-16 16:31N 50°07' W 125°23'0 0.0
2018-Jul-16 16:00N 50°07' W 125°23'0 0.0
2018-Jul-16 15:31N 50°07' W 125°23'0 0.0
2018-Jul-16 15:01N 50°07' W 125°23'0 0.0
2018-Jul-16 14:31N 50°07' W 125°23'0 0.1
2018-Jul-16 14:00N 50°07' W 125°23'0 0.2
2018-Jul-16 13:30N 50°07' W 125°23'0 0.0
2018-Jul-16 13:00N 50°07' W 125°23'0 0.0
2018-Jul-16 12:31N 50°07' W 125°23'0 0.0
2018-Jul-16 12:01N 50°07' W 125°23'0 0.0
2018-Jul-16 11:31N 50°07' W 125°23'0 0.0
2018-Jul-16 11:00N 50°07' W 125°23'0 0.0
2018-Jul-16 10:31N 50°07' W 125°23'0 0.0
2018-Jul-16 10:01N 50°07' W 125°23'0 0.0
2018-Jul-16 09:31N 50°07' W 125°23'0 0.0
2018-Jul-16 09:01N 50°07' W 125°23'0 0.0
2018-Jul-16 08:30N 50°07' W 125°23'0 0.0
2018-Jul-16 08:01N 50°07' W 125°23'0 0.0
2018-Jul-16 07:30N 50°07' W 125°23'0 0.0
2018-Jul-16 07:01N 50°07' W 125°23'0 0.0
2018-Jul-16 06:31N 50°07' W 125°23'0 0.0
2018-Jul-16 06:01N 50°07' W 125°23'0 0.0
2018-Jul-16 05:31N 50°07' W 125°23'0 0.0
2018-Jul-16 05:00N 50°07' W 125°23'0 0.0
2018-Jul-16 04:30N 50°07' W 125°23'0 0.0
2018-Jul-16 04:00N 50°07' W 125°23'0 0.0
2018-Jul-16 03:30N 50°07' W 125°23'0 0.0
2018-Jul-16 03:00N 50°07' W 125°23'0 0.0
2018-Jul-16 02:31N 50°07' W 125°23'0 0.0
2018-Jul-16 02:00N 50°07' W 125°23'0 0.0
2018-Jul-16 01:30N 50°07' W 125°23'0 0.0
2018-Jul-16 01:01N 50°07' W 125°23'0 0.0
2018-Jul-16 00:30N 50°07' W 125°23'0 0.0
2018-Jul-16 00:00N 50°07' W 125°23'0 0.0
2018-Jul-15 23:31N 50°07' W 125°23'0 0.0
2018-Jul-15 23:00N 50°07' W 125°23'0 0.0
2018-Jul-15 22:30N 50°07' W 125°23'0 0.0
2018-Jul-15 22:01N 50°07' W 125°23'0 0.0
2018-Jul-15 21:30N 50°07' W 125°23'0 0.0
2018-Jul-15 21:00N 50°07' W 125°23'0 0.0
2018-Jul-15 20:30N 50°07' W 125°23'0 0.0
2018-Jul-15 20:01N 50°07' W 125°23'0 0.0
2018-Jul-15 19:30N 50°07' W 125°23'0 0.0
2018-Jul-15 19:00N 50°07' W 125°23'0 0.0
2018-Jul-15 18:30N 50°07' W 125°23'0 0.0
2018-Jul-15 18:01N 50°07' W 125°23'0 0.0
2018-Jul-15 17:31N 50°07' W 125°23'0 0.0
2018-Jul-15 17:00N 50°07' W 125°23'0 0.0
2018-Jul-15 16:30N 50°07' W 125°23'0 0.0
2018-Jul-15 16:00N 50°07' W 125°23'0 0.0
2018-Jul-15 15:30N 50°07' W 125°23'0 0.0
2018-Jul-15 15:01N 50°07' W 125°23'0 0.0
2018-Jul-15 14:31N 50°07' W 125°23'0 0.0
2018-Jul-15 14:00N 50°07' W 125°23'0 0.0
2018-Jul-15 13:30N 50°07' W 125°23'0 0.0
2018-Jul-15 13:01N 50°07' W 125°23'0 0.0
2018-Jul-15 12:29N 50°07' W 125°23'0 0.0
2018-Jul-15 12:00N 50°07' W 125°23'0 0.0
2018-Jul-15 11:29N 50°07' W 125°23'0 0.0
2018-Jul-15 11:01N 50°07' W 125°23'0 0.0
2018-Jul-15 10:30N 50°07' W 125°23'0 0.0
2018-Jul-15 10:00N 50°07' W 125°23'0 0.0
2018-Jul-15 09:31N 50°07' W 125°23'0 0.0
2018-Jul-15 09:00N 50°07' W 125°23'0 0.0
2018-Jul-15 08:29N 50°07' W 125°23'0 0.0
2018-Jul-15 08:00N 50°07' W 125°23'0 0.0
2018-Jul-15 07:30N 50°07' W 125°23'0 0.0
2018-Jul-15 07:00N 50°07' W 125°23'0 0.0
2018-Jul-15 06:30N 50°07' W 125°23'0 0.0
2018-Jul-15 06:01N 50°07' W 125°23'0 0.0
2018-Jul-15 05:30N 50°07' W 125°23'0 0.0
2018-Jul-15 05:01N 50°07' W 125°23'0 0.0
2018-Jul-15 04:30N 50°07' W 125°23'0 0.0
2018-Jul-15 03:59N 50°07' W 125°23'0 0.0
2018-Jul-15 03:31N 50°07' W 125°23'0 0.0
2018-Jul-15 03:00N 50°07' W 125°23'0 0.0
2018-Jul-15 02:30N 50°07' W 125°23'0 0.0
2018-Jul-15 02:01N 50°07' W 125°23'0 0.0
2018-Jul-15 01:30N 50°07' W 125°23'0 0.0
2018-Jul-15 01:00N 50°07' W 125°23'0 0.0
2018-Jul-15 00:30N 50°07' W 125°23'0 0.0
2018-Jul-15 00:01N 50°07' W 125°23'0 0.0
2018-Jul-14 23:30N 50°07' W 125°23'0 0.0
2018-Jul-14 22:59N 50°07' W 125°23'0 0.0
2018-Jul-14 22:31N 50°07' W 125°23'0 0.0
2018-Jul-14 22:00N 50°07' W 125°23'0 0.0
2018-Jul-14 21:28N 50°07' W 125°23'0 0.0
2018-Jul-14 21:00N 50°07' W 125°23'0 0.0
2018-Jul-14 20:30N 50°07' W 125°23'0 0.0
2018-Jul-14 20:00N 50°07' W 125°23'0 0.0
2018-Jul-14 19:30N 50°07' W 125°23'0 0.0
2018-Jul-14 19:00N 50°07' W 125°23'0 0.0
2018-Jul-14 18:30N 50°07' W 125°23'0 0.0
2018-Jul-14 18:01N 50°07' W 125°23'0 0.0
2018-Jul-14 17:31N 50°07' W 125°23'0 0.0
2018-Jul-14 17:01N 50°07' W 125°23'0 0.0
2018-Jul-14 16:31N 50°07' W 125°23'0 0.0
2018-Jul-14 16:00N 50°07' W 125°23'0 0.0
2018-Jul-14 15:30N 50°07' W 125°23'0 0.0
2018-Jul-14 15:01N 50°07' W 125°23'0 0.0
2018-Jul-14 14:30N 50°07' W 125°23'0 0.0
2018-Jul-14 13:31N 50°07' W 125°23'0 0.0
2018-Jul-14 13:00N 50°07' W 125°23'0 0.0
2018-Jul-14 12:30N 50°07' W 125°23'0 0.0
2018-Jul-14 12:01N 50°07' W 125°23'0 0.0
2018-Jul-14 11:31N 50°07' W 125°23'0 0.0
2018-Jul-14 11:00N 50°07' W 125°23'0 0.0
2018-Jul-14 10:31N 50°07' W 125°23'0 0.0
2018-Jul-14 10:00N 50°07' W 125°23'0 0.0
2018-Jul-14 09:31N 50°07' W 125°23'0 0.0
2018-Jul-14 09:00N 50°07' W 125°23'0 0.0
2018-Jul-14 08:30N 50°07' W 125°23'0 0.0
2018-Jul-14 08:00N 50°07' W 125°23'0 0.0
2018-Jul-14 07:30N 50°07' W 125°23'0 0.0
2018-Jul-14 07:01N 50°07' W 125°23'0 0.0
2018-Jul-14 06:27N 50°07' W 125°23'0 0.0
2018-Jul-14 05:58N 50°07' W 125°23'0 0.0
2018-Jul-14 05:30N 50°07' W 125°23'0 0.0
2018-Jul-14 05:01N 50°07' W 125°23'0 0.0
2018-Jul-14 04:30N 50°07' W 125°23'0 0.0
2018-Jul-14 03:59N 50°07' W 125°23'0 0.0
2018-Jul-14 03:30N 50°07' W 125°23'0 0.0
2018-Jul-14 03:00N 50°07' W 125°23'0 0.0
2018-Jul-14 02:31N 50°07' W 125°23'0 0.0
2018-Jul-14 02:00N 50°07' W 125°23'0 0.0
2018-Jul-14 01:30N 50°07' W 125°23'0 0.0
2018-Jul-14 00:59N 50°07' W 125°23'0 0.0
2018-Jul-14 00:31N 50°07' W 125°23'0 0.0
2018-Jul-14 00:00N 50°07' W 125°23'0 0.0
2018-Jul-13 23:30N 50°07' W 125°23'0 0.0
2018-Jul-13 23:00N 50°07' W 125°23'0 0.0
2018-Jul-13 22:30N 50°07' W 125°23'0 0.0
2018-Jul-13 22:00N 50°07' W 125°23'0 0.0
2018-Jul-13 21:31N 50°07' W 125°23'0 0.0
2018-Jul-13 21:00N 50°07' W 125°23'0 0.0
2018-Jul-13 20:30N 50°07' W 125°23'0 0.0
2018-Jul-13 20:01N 50°07' W 125°23'0 0.0
2018-Jul-13 19:30N 50°07' W 125°23'0 0.0
2018-Jul-13 19:00N 50°07' W 125°23'0 0.0
2018-Jul-13 18:30N 50°07' W 125°23'0 0.0
2018-Jul-13 17:59N 50°07' W 125°23'0 0.0
2018-Jul-11 17:58N 50°07' W 125°23'0 0.0
2018-Jul-11 17:30N 50°07' W 125°23'0 0.0
2018-Jul-11 17:00N 50°07' W 125°23'0 0.0
2018-Jul-11 16:30N 50°07' W 125°23'0 0.0
2018-Jul-11 16:00N 50°07' W 125°23'0 0.0
2018-Jul-11 15:30N 50°07' W 125°23'0 0.0
2018-Jul-11 15:00N 50°07' W 125°23'0 0.0
2018-Jul-11 14:30N 50°07' W 125°23'0 0.0
2018-Jul-11 14:00N 50°07' W 125°23'0 0.0
2018-Jul-11 13:30N 50°07' W 125°23'0 0.0
2018-Jul-11 13:00N 50°07' W 125°23'0 0.0
2018-Jul-11 12:30N 50°07' W 125°23'0 0.0
2018-Jul-11 12:00N 50°07' W 125°23'0 0.0
2018-Jul-11 11:30N 50°07' W 125°23'0 0.0
2018-Jul-11 11:00N 50°07' W 125°23'0 0.0
2018-Jul-11 10:30N 50°07' W 125°23'0 0.0
2018-Jul-11 10:00N 50°07' W 125°23'0 0.0
2018-Jul-11 09:30N 50°07' W 125°23'0 0.0
2018-Jul-11 09:00N 50°07' W 125°23'0 0.0
2018-Jul-11 08:30N 50°07' W 125°23'0 0.0
2018-Jul-11 08:00N 50°07' W 125°23'0 0.0
2018-Jul-11 07:30N 50°07' W 125°23'0 0.0
2018-Jul-11 07:00N 50°07' W 125°23'0 0.0
2018-Jul-11 06:29N 50°07' W 125°23'0 0.0
2018-Jul-11 06:00N 50°07' W 125°23'0 0.0
2018-Jul-11 05:30N 50°07' W 125°23'0 0.0
2018-Jul-11 05:00N 50°07' W 125°23'0 0.0
2018-Jul-11 04:30N 50°07' W 125°23'0 0.0
2018-Jul-11 04:00N 50°07' W 125°23'0 0.0
2018-Jul-11 03:30N 50°07' W 125°23'0 0.0
2018-Jul-11 03:00N 50°07' W 125°23'0 0.0
2018-Jul-11 02:30N 50°07' W 125°23'0 0.0
2018-Jul-11 02:00N 50°07' W 125°23'0 0.0
2018-Jul-11 01:30N 50°07' W 125°23'0 0.0
2018-Jul-11 01:00N 50°07' W 125°23'0 0.0
2018-Jul-11 00:30N 50°07' W 125°23'0 0.0
2018-Jul-11 00:00N 50°07' W 125°23'0 0.0
2018-Jul-10 23:30N 50°07' W 125°23'0 0.0
2018-Jul-10 23:00N 50°07' W 125°23'0 0.0
2018-Jul-10 22:30N 50°07' W 125°23'0 0.0
2018-Jul-10 22:00N 50°07' W 125°23'0 0.0
2018-Jul-10 21:30N 50°07' W 125°23'0 0.0
2018-Jul-10 21:00N 50°07' W 125°23'0 0.0
2018-Jul-10 20:30N 50°07' W 125°23'0 0.1
2018-Jul-10 20:00N 50°07' W 125°23'0 0.3
2018-Jul-10 19:30N 50°07' W 125°23'0 0.0
2018-Jul-10 19:00N 50°07' W 125°23'0 0.0
2018-Jul-10 18:30N 50°07' W 125°23'3 6.8
2018-Jul-10 18:00N 50°11' W 125°22'4 8.0
2018-Jul-10 17:30N 50°15' W 125°23'4 8.6
2018-Jul-10 17:00N 50°19' W 125°25'10 7.4
2018-Jul-10 15:43N 50°27' W 125°17'2 8.6
2018-Jul-10 15:30N 50°26' W 125°15'4 7.0
2018-Jul-10 14:57N 50°25' W 125°08'6 0.7
2018-Jul-10 05:30N 50°30' W 125°03'5 7.7
2018-Jul-10 04:53N 50°26' W 125°06'3 8.4
2018-Jul-10 04:30N 50°24' W 125°10'3 7.0
2018-Jul-10 04:00N 50°26' W 125°15'  

Dump ship's entire track history